Time;durP1;ratioP1;P1;durP2;ratioP2;P2;SDS_P1;SDS_P2;PMS_P1;PMS_P2;Temp;Humidity;BMP_temperature;BMP_pressure;BME280_temperature;BME280_humidity;BME280_pressure;Samples;Min_cycle;Max_cycle;Signal;HPM_P1;HPM_P2
2021/10/30 00:01:35;;;;;;;28.03;23.60;;;9.90;99.70;;;;;;4952174;29;20178;-53
2021/10/30 00:04:01;;;;;;;29.07;22.60;;;9.90;99.70;;;;;;4953466;29;20719;-56
2021/10/30 00:06:27;;;;;;;24.37;21.77;;;9.80;99.90;;;;;;4952552;29;20177;-54
2021/10/30 00:08:53;;;;;;;27.70;22.77;;;9.80;99.90;;;;;;4953401;29;20185;-54
2021/10/30 00:11:19;;;;;;;24.80;21.50;;;9.70;99.90;;;;;;4952336;29;20425;-56
2021/10/30 00:13:44;;;;;;;25.70;21.93;;;9.80;99.90;;;;;;4953258;29;20206;-54
2021/10/30 00:16:10;;;;;;;26.57;22.30;;;9.70;99.90;;;;;;4950643;29;20189;-55
2021/10/30 00:18:35;;;;;;;26.00;23.23;;;9.70;99.90;;;;;;4952356;28;20200;-56
2021/10/30 00:21:01;;;;;;;24.60;22.00;;;9.70;99.90;;;;;;4937801;29;20182;-52
2021/10/30 00:23:27;;;;;;;28.10;22.80;;;9.70;99.90;;;;;;4946899;29;20566;-55
2021/10/30 00:25:52;;;;;;;24.87;21.70;;;9.70;99.90;;;;;;4952980;29;20205;-54
2021/10/30 00:28:18;;;;;;;23.87;21.37;;;9.60;99.90;;;;;;4952078;29;20681;-52
2021/10/30 00:30:44;;;;;;;29.53;23.10;;;9.60;99.90;;;;;;4952991;29;20217;-55
2021/10/30 00:33:10;;;;;;;25.50;22.30;;;9.60;99.90;;;;;;4952077;29;20742;-52
2021/10/30 00:35:35;;;;;;;25.47;21.90;;;9.60;99.90;;;;;;4952704;29;20437;-56
2021/10/30 00:38:01;;;;;;;25.80;22.33;;;9.60;99.90;;;;;;4948658;29;20278;-53
2021/10/30 00:40:27;;;;;;;24.97;22.37;;;9.60;99.90;;;;;;4952834;29;20640;-53
2021/10/30 00:42:52;;;;;;;25.27;22.57;;;9.60;99.90;;;;;;4951394;29;20194;-55
2021/10/30 00:45:18;;;;;;;26.00;21.80;;;9.70;99.90;;;;;;4952442;29;20483;-50
2021/10/30 00:47:43;;;;;;;26.53;21.87;;;9.70;99.90;;;;;;4934557;29;20189;-48
2021/10/30 00:50:09;;;;;;;25.30;21.53;;;9.60;99.90;;;;;;4952746;29;20186;-52
2021/10/30 00:52:39;;;;;;;26.87;23.07;;;9.60;99.90;;;;;;4951838;29;20178;-54
2021/10/30 00:55:09;;;;;;;25.07;22.43;;;9.60;99.90;;;;;;4952507;29;20868;-56
2021/10/30 00:57:38;;;;;;;26.30;22.17;;;9.60;99.90;;;;;;4933792;29;20437;-56
2021/10/30 01:00:05;;;;;;;24.60;22.00;;;9.50;99.90;;;;;;4952363;29;20429;-56
2021/10/30 01:02:31;;;;;;;24.60;21.97;;;9.50;99.90;;;;;;4951465;29;20453;-54
2021/10/30 01:04:56;;;;;;;25.13;22.40;;;9.50;99.90;;;;;;4945814;29;20916;-52
2021/10/30 01:07:22;;;;;;;25.30;22.60;;;9.40;99.90;;;;;;4948196;29;20174;-53
2021/10/30 01:09:51;;;;;;;25.17;22.47;;;9.40;99.90;;;;;;4948887;29;20189;-53
2021/10/30 01:12:18;;;;;;;24.80;21.93;;;9.50;99.90;;;;;;4952302;29;20182;-56
2021/10/30 01:14:44;;;;;;;26.93;22.47;;;9.50;99.90;;;;;;4951640;29;20947;-56
2021/10/30 01:17:10;;;;;;;27.77;23.80;;;9.40;99.90;;;;;;4952481;29;20413;-53
2021/10/30 01:19:35;;;;;;;26.47;22.77;;;9.40;99.90;;;;;;4950551;29;20786;-53
2021/10/30 01:22:02;;;;;;;25.90;22.47;;;9.40;99.90;;;;;;4952259;29;20678;-53
2021/10/30 01:24:28;;;;;;;24.17;21.63;;;9.40;99.90;;;;;;4950681;29;20680;-55
2021/10/30 01:26:53;;;;;;;23.87;21.40;;;9.40;99.90;;;;;;4951736;29;20430;-54
2021/10/30 01:29:20;;;;;;;24.63;21.97;;;9.40;99.90;;;;;;4949899;28;21264;-53
2021/10/30 01:31:45;;;;;;;25.23;22.63;;;9.40;99.90;;;;;;4952084;29;20219;-52
2021/10/30 01:34:11;;;;;;;25.80;23.20;;;9.30;99.90;;;;;;4948207;29;20519;-53
2021/10/30 01:36:37;;;;;;;24.87;21.60;;;9.30;99.90;;;;;;4951945;28;20200;-55
2021/10/30 01:39:05;;;;;;;25.53;22.90;;;9.30;99.90;;;;;;4953011;28;20201;-54
2021/10/30 01:41:31;;;;;;;24.53;22.10;;;9.30;99.90;;;;;;4951976;29;20425;-53
2021/10/30 01:43:57;;;;;;;26.43;23.33;;;9.30;99.90;;;;;;4951033;29;21364;-54
2021/10/30 01:46:24;;;;;;;26.90;22.90;;;9.30;99.90;;;;;;4951879;29;20808;-55
2021/10/30 01:48:50;;;;;;;26.00;22.10;;;9.30;99.90;;;;;;4950528;29;20979;-55
2021/10/30 01:51:16;;;;;;;24.43;21.83;;;9.30;99.90;;;;;;4951545;29;20425;-53
2021/10/30 01:53:43;;;;;;;26.03;23.23;;;9.30;99.90;;;;;;4950441;29;20205;-56
2021/10/30 01:56:09;;;;;;;24.97;22.27;;;9.30;99.90;;;;;;4950790;29;20437;-53
2021/10/30 01:58:36;;;;;;;27.33;23.33;;;9.20;99.90;;;;;;4950797;29;20425;-53
2021/10/30 02:01:03;;;;;;;25.73;22.30;;;9.30;99.90;;;;;;4950699;29;20440;-56
2021/10/30 02:03:32;;;;;;;26.47;22.77;;;9.30;99.90;;;;;;4950592;29;20424;-55
2021/10/30 02:05:59;;;;;;;24.27;21.63;;;9.30;99.90;;;;;;4950169;29;20472;-53
2021/10/30 02:08:25;;;;;;;26.60;22.00;;;9.20;99.90;;;;;;4951366;29;21047;-54
2021/10/30 02:10:50;;;;;;;26.17;22.10;;;9.30;99.90;;;;;;4940936;29;20444;-54
2021/10/30 02:13:17;;;;;;;24.50;21.90;;;9.30;99.90;;;;;;4951096;29;20421;-55
2021/10/30 02:15:42;;;;;;;26.33;23.20;;;9.30;99.90;;;;;;4949597;29;20193;-52
2021/10/30 02:18:08;;;;;;;26.10;21.90;;;9.30;99.90;;;;;;4951321;29;20909;-52
2021/10/30 02:20:34;;;;;;;24.97;22.30;;;9.30;99.90;;;;;;4949885;29;20228;-55
2021/10/30 02:23:00;;;;;;;25.77;22.20;;;9.30;99.90;;;;;;4951336;29;20440;-55
2021/10/30 02:25:26;;;;;;;25.00;21.90;;;9.20;99.90;;;;;;4947328;29;20284;-52
2021/10/30 02:27:52;;;;;;;27.63;22.20;;;9.20;99.90;;;;;;4940945;29;20934;-53
2021/10/30 02:30:19;;;;;;;26.20;23.33;;;9.20;99.90;;;;;;4950000;29;20189;-54
2021/10/30 02:32:44;;;;;;;25.90;22.30;;;9.20;99.90;;;;;;4950771;29;20440;-55
2021/10/30 02:35:11;;;;;;;26.60;22.93;;;9.30;99.90;;;;;;4950505;29;20425;-56
2021/10/30 02:37:38;;;;;;;24.63;21.97;;;9.30;99.90;;;;;;4949576;29;20181;-53
2021/10/30 02:40:04;;;;;;;29.17;21.50;;;9.30;99.90;;;;;;4951055;29;20429;-52
2021/10/30 02:42:29;;;;;;;27.60;22.30;;;9.30;99.90;;;;;;4951886;28;20432;-56
2021/10/30 02:44:55;;;;;;;25.50;22.00;;;9.30;99.90;;;;;;4954686;29;21083;-55
2021/10/30 02:47:21;;;;;;;26.57;22.50;;;9.20;99.90;;;;;;4953988;29;20190;-54
2021/10/30 02:49:46;;;;;;;23.43;20.90;;;9.20;99.90;;;;;;4955125;29;20178;-55
2021/10/30 02:52:12;;;;;;;24.87;21.87;;;9.20;99.90;;;;;;4954018;29;20181;-53
2021/10/30 02:54:37;;;;;;;26.73;22.10;;;9.30;99.90;;;;;;4954267;29;20697;-53
2021/10/30 02:57:03;;;;;;;26.33;23.03;;;9.30;99.90;;;;;;4953445;29;20201;-54
2021/10/30 02:59:29;;;;;;;25.63;22.87;;;9.20;99.90;;;;;;4954538;29;20216;-54
2021/10/30 03:01:54;;;;;;;25.60;21.73;;;9.30;99.90;;;;;;4953852;29;20593;-58
2021/10/30 03:04:20;;;;;;;25.67;22.63;;;9.30;99.90;;;;;;4954649;29;20625;-54
2021/10/30 03:06:45;;;;;;;25.97;20.67;;;9.20;99.90;;;;;;4953661;29;20174;-52
2021/10/30 03:09:11;;;;;;;25.13;22.50;;;9.20;99.90;;;;;;4954753;29;20182;-52
2021/10/30 03:11:37;;;;;;;25.50;22.53;;;9.20;99.90;;;;;;4953074;29;20184;-55
2021/10/30 03:14:03;;;;;;;25.80;21.27;;;9.20;99.90;;;;;;4954429;29;20185;-52
2021/10/30 03:16:29;;;;;;;25.40;22.73;;;9.20;99.90;;;;;;4954480;29;20565;-54
2021/10/30 03:18:55;;;;;;;24.83;21.30;;;9.20;99.90;;;;;;4935738;29;20443;-56
2021/10/30 03:21:20;;;;;;;27.53;23.97;;;9.20;99.90;;;;;;4954708;29;20772;-54
2021/10/30 03:23:46;;;;;;;25.13;21.60;;;9.20;99.90;;;;;;4953656;29;20432;-56
2021/10/30 03:26:12;;;;;;;26.57;21.70;;;9.20;99.90;;;;;;4954476;29;21280;-57
2021/10/30 03:28:37;;;;;;;24.63;21.93;;;9.20;99.90;;;;;;4953752;29;20189;-54
2021/10/30 03:31:03;;;;;;;26.93;21.90;;;9.20;99.90;;;;;;4954193;29;20182;-54
2021/10/30 03:33:29;;;;;;;23.13;20.63;;;9.20;99.90;;;;;;4953403;29;20360;-55
2021/10/30 03:35:54;;;;;;;24.57;21.87;;;9.20;99.90;;;;;;4947784;29;20228;-57
2021/10/30 03:38:20;;;;;;;26.60;21.60;;;9.10;99.90;;;;;;4952408;28;20218;-54
2021/10/30 03:40:46;;;;;;;25.53;22.53;;;9.10;99.90;;;;;;4952951;29;20192;-55
2021/10/30 03:43:11;;;;;;;27.30;22.03;;;9.10;99.90;;;;;;4949283;29;20909;-57
2021/10/30 03:45:37;;;;;;;24.50;21.90;;;9.10;99.90;;;;;;4939812;29;20209;-54
2021/10/30 03:48:08;;;;;;;24.90;21.33;;;9.10;99.90;;;;;;4953855;29;20178;-55
2021/10/30 03:50:34;;;;;;;24.17;21.03;;;9.00;99.90;;;;;;4952931;29;20530;-54
2021/10/30 03:53:00;;;;;;;25.13;22.40;;;9.00;99.90;;;;;;4953600;28;20769;-58
2021/10/30 03:55:26;;;;;;;26.13;22.90;;;9.00;99.90;;;;;;4927357;29;20450;-55
2021/10/30 03:57:52;;;;;;;25.83;23.13;;;9.00;99.90;;;;;;4942106;29;20181;-54
2021/10/30 04:00:17;;;;;;;25.90;22.73;;;9.00;99.90;;;;;;4945513;29;20436;-50
2021/10/30 04:02:43;;;;;;;26.50;21.50;;;9.00;99.90;;;;;;4952999;29;20193;-57
2021/10/30 04:05:09;;;;;;;26.60;21.50;;;9.00;99.90;;;;;;4948375;29;20201;-55
2021/10/30 04:07:35;;;;;;;26.00;23.30;;;9.00;99.90;;;;;;4948780;29;20218;-57
2021/10/30 04:10:00;;;;;;;25.30;22.43;;;9.00;99.90;;;;;;4953721;29;20453;-53
2021/10/30 04:12:26;;;;;;;25.30;21.80;;;9.00;99.90;;;;;;4952702;29;20209;-54
2021/10/30 04:14:52;;;;;;;26.70;23.50;;;9.00;99.90;;;;;;4953463;29;20222;-55
2021/10/30 04:17:18;;;;;;;26.60;23.30;;;9.00;99.90;;;;;;4952374;29;20185;-48
2021/10/30 04:19:43;;;;;;;27.27;22.83;;;8.90;99.90;;;;;;4953351;29;20194;-53
2021/10/30 04:22:09;;;;;;;27.10;22.67;;;9.00;99.90;;;;;;4943604;29;20183;-55
2021/10/30 04:24:34;;;;;;;27.67;22.73;;;8.90;99.90;;;;;;4934131;29;20720;-53
2021/10/30 04:27:00;;;;;;;25.53;20.90;;;8.90;99.90;;;;;;4940394;29;20894;-54
2021/10/30 04:29:26;;;;;;;27.03;23.23;;;8.90;99.90;;;;;;4953199;29;20178;-58
2021/10/30 04:31:55;;;;;;;25.60;22.80;;;8.90;99.90;;;;;;4934951;29;20220;-56
2021/10/30 04:34:23;;;;;;;27.10;22.00;;;8.80;99.90;;;;;;4948848;29;20473;-56
2021/10/30 04:36:49;;;;;;;24.40;20.97;;;8.80;99.90;;;;;;4948373;29;20469;-54
2021/10/30 04:39:18;;;;;;;28.23;21.93;;;8.80;99.90;;;;;;4952570;28;20472;-53
2021/10/30 04:41:44;;;;;;;25.73;22.93;;;8.80;99.90;;;;;;4949339;29;20432;-58
2021/10/30 04:44:10;;;;;;;27.70;23.00;;;8.80;99.90;;;;;;4949782;29;20468;-57
2021/10/30 04:46:36;;;;;;;27.60;23.10;;;8.80;99.90;;;;;;4951995;29;20429;-54
2021/10/30 04:49:02;;;;;;;24.40;21.80;;;8.80;99.90;;;;;;4952795;29;20178;-56
2021/10/30 04:51:28;;;;;;;26.60;21.93;;;8.80;99.90;;;;;;4952894;29;20472;-58
2021/10/30 04:53:53;;;;;;;26.57;21.60;;;8.80;99.90;;;;;;4951994;29;20797;-52
2021/10/30 04:56:19;;;;;;;26.67;21.47;;;8.70;99.90;;;;;;4951958;29;20190;-55
2021/10/30 04:58:45;;;;;;;31.20;23.80;;;8.70;99.90;;;;;;4947096;29;20676;-55
2021/10/30 05:01:16;;;;;;;23.97;21.40;;;8.80;99.90;;;;;;4951400;29;20213;-54
2021/10/30 05:03:43;;;;;;;28.77;22.60;;;8.70;99.90;;;;;;4952497;29;20192;-50
2021/10/30 05:06:10;;;;;;;26.70;22.00;;;8.70;99.90;;;;;;4950915;28;20445;-56
2021/10/30 05:08:36;;;;;;;26.83;22.73;;;8.70;99.90;;;;;;4952512;29;20452;-55
2021/10/30 05:11:02;;;;;;;25.10;21.63;;;8.70;99.90;;;;;;4951499;29;20848;-55
2021/10/30 05:13:27;;;;;;;30.53;22.93;;;8.70;99.90;;;;;;4944444;29;20524;-56
2021/10/30 05:15:53;;;;;;;27.47;22.20;;;8.70;99.90;;;;;;4947094;29;20788;-52
2021/10/30 05:18:19;;;;;;;27.93;23.13;;;8.70;99.90;;;;;;4951605;29;20253;-56
2021/10/30 05:20:44;;;;;;;25.90;22.60;;;8.70;99.90;;;;;;4952227;29;20804;-51
2021/10/30 05:23:10;;;;;;;25.57;22.87;;;8.70;99.90;;;;;;4951125;29;20672;-56
2021/10/30 05:25:35;;;;;;;27.60;22.23;;;8.60;99.90;;;;;;4951287;29;20205;-56
2021/10/30 05:28:01;;;;;;;25.13;22.13;;;8.70;99.90;;;;;;4951999;29;20174;-54
2021/10/30 05:30:26;;;;;;;24.80;22.17;;;8.70;99.90;;;;;;4951196;29;20177;-56
2021/10/30 05:32:52;;;;;;;31.27;23.77;;;8.60;99.90;;;;;;4950980;29;20232;-56
2021/10/30 05:35:18;;;;;;;26.83;23.30;;;8.60;99.90;;;;;;4950718;29;20186;-54
2021/10/30 05:37:43;;;;;;;25.97;22.40;;;8.60;99.90;;;;;;4951796;29;20656;-55
2021/10/30 05:40:11;;;;;;;28.30;23.20;;;8.50;99.90;;;;;;4950903;29;20182;-53
2021/10/30 05:42:39;;;;;;;28.10;23.77;;;8.60;99.90;;;;;;4951548;29;20882;-54
2021/10/30 05:45:06;;;;;;;29.30;23.27;;;8.60;99.90;;;;;;4950825;29;20477;-55
2021/10/30 05:47:33;;;;;;;24.53;21.40;;;8.50;99.90;;;;;;4934353;29;20429;-56
2021/10/30 05:49:59;;;;;;;25.17;22.60;;;8.50;99.90;;;;;;4951048;29;20429;-52
2021/10/30 05:52:25;;;;;;;28.67;22.40;;;8.50;99.90;;;;;;4951603;29;20420;-56
2021/10/30 05:54:51;;;;;;;29.70;23.80;;;8.50;99.90;;;;;;4951073;29;20451;-53
2021/10/30 05:57:17;;;;;;;27.47;23.30;;;8.60;99.90;;;;;;4951590;29;20421;-53
2021/10/30 05:59:42;;;;;;;28.13;24.13;;;8.60;99.90;;;;;;4950692;29;20592;-56
2021/10/30 06:02:12;;;;;;;30.93;24.27;;;8.60;99.90;;;;;;4951545;29;20181;-54
2021/10/30 06:04:38;;;;;;;29.53;23.37;;;8.60;99.90;;;;;;4950302;29;20205;-58
2021/10/30 06:07:04;;;;;;;26.73;23.07;;;8.60;99.90;;;;;;4951177;29;20420;-55
2021/10/30 06:09:30;;;;;;;28.60;22.53;;;8.60;99.90;;;;;;4928619;29;20516;-55
2021/10/30 06:11:55;;;;;;;27.17;22.20;;;8.70;99.90;;;;;;4944794;29;20196;-54
2021/10/30 06:14:21;;;;;;;29.73;22.63;;;8.70;99.90;;;;;;4950560;29;20237;-57
2021/10/30 06:16:47;;;;;;;27.73;22.73;;;8.70;99.90;;;;;;4951185;28;20213;-49
2021/10/30 06:19:13;;;;;;;30.03;23.80;;;8.60;99.90;;;;;;4950955;29;20453;-57
2021/10/30 06:21:38;;;;;;;32.77;23.40;;;8.60;99.90;;;;;;4950434;29;20184;-56
2021/10/30 06:24:04;;;;;;;30.07;23.90;;;8.60;99.90;;;;;;4950921;29;20508;-55
2021/10/30 06:26:30;;;;;;;26.40;23.50;;;8.60;99.90;;;;;;4941792;29;20197;-56
2021/10/30 06:28:56;;;;;;;27.33;23.50;;;8.60;99.90;;;;;;4933660;29;20504;-55
2021/10/30 06:31:22;;;;;;;28.97;23.33;;;8.60;99.90;;;;;;4950499;29;20201;-54
2021/10/30 06:33:48;;;;;;;27.80;23.00;;;8.50;99.90;;;;;;4950564;29;20504;-54
2021/10/30 06:36:14;;;;;;;25.80;23.07;;;8.50;99.90;;;;;;4937995;29;20545;-56
2021/10/30 06:38:40;;;;;;;28.27;23.20;;;8.60;99.90;;;;;;4949850;29;20823;-52
2021/10/30 06:41:06;;;;;;;26.53;23.50;;;8.60;99.90;;;;;;4950083;29;20186;-57
2021/10/30 06:43:33;;;;;;;29.30;22.80;;;8.60;99.90;;;;;;4950973;29;20280;-54
2021/10/30 06:45:59;;;;;;;28.93;22.40;;;8.70;99.90;;;;;;4950097;29;20559;-54
2021/10/30 06:48:25;;;;;;;32.40;23.83;;;8.80;99.90;;;;;;4950753;29;20524;-55
2021/10/30 06:50:53;;;;;;;27.57;23.40;;;8.80;99.90;;;;;;4950042;29;20492;-57
2021/10/30 06:53:18;;;;;;;28.63;23.50;;;8.70;99.90;;;;;;4950680;29;20448;-56
2021/10/30 06:55:44;;;;;;;31.00;23.27;;;8.80;99.90;;;;;;4949459;29;20461;-55
2021/10/30 06:58:10;;;;;;;28.23;23.80;;;8.80;99.90;;;;;;4951210;29;20268;-57
2021/10/30 07:00:36;;;;;;;28.13;22.87;;;8.80;99.90;;;;;;4946832;29;20209;-57
2021/10/30 07:03:02;;;;;;;28.23;23.47;;;8.80;99.90;;;;;;4931893;29;20234;-56
2021/10/30 07:05:27;;;;;;;27.93;23.53;;;8.90;99.90;;;;;;4932137;29;20531;-53
2021/10/30 07:07:53;;;;;;;27.67;23.07;;;8.90;99.90;;;;;;4933448;29;20432;-57
2021/10/30 07:10:20;;;;;;;26.90;23.50;;;8.90;99.90;;;;;;4950332;29;20166;-53
2021/10/30 07:12:46;;;;;;;29.40;25.33;;;9.00;99.90;;;;;;4950028;29;20226;-54
2021/10/30 07:15:13;;;;;;;29.00;24.90;;;9.00;99.90;;;;;;4950021;29;20406;-57
2021/10/30 07:17:39;;;;;;;30.33;24.20;;;9.00;99.90;;;;;;4949950;29;20169;-56
2021/10/30 07:20:06;;;;;;;29.30;24.50;;;9.10;99.90;;;;;;4950726;29;20449;-52
2021/10/30 07:22:38;;;;;;;30.57;23.50;;;9.20;99.90;;;;;;4934384;29;20517;-54
2021/10/30 07:25:04;;;;;;;29.30;24.23;;;9.20;99.90;;;;;;4931706;29;20446;-50
2021/10/30 07:27:30;;;;;;;27.73;23.20;;;9.30;99.90;;;;;;4945865;28;20422;-55
2021/10/30 07:29:55;;;;;;;28.77;24.00;;;9.40;99.90;;;;;;4953550;29;20971;-57
2021/10/30 07:32:22;;;;;;;27.10;22.80;;;9.50;99.90;;;;;;4953111;29;20178;-54
2021/10/30 07:34:47;;;;;;;28.83;25.40;;;9.60;99.90;;;;;;4953650;29;20229;-52
2021/10/30 07:37:13;;;;;;;29.80;23.87;;;9.70;99.90;;;;;;4947625;28;20488;-54
2021/10/30 07:39:38;;;;;;;29.13;24.40;;;10.00;99.90;;;;;;4948715;29;20185;-53
2021/10/30 07:42:05;;;;;;;30.40;24.33;;;10.30;99.90;;;;;;4952410;29;20186;-53
2021/10/30 07:44:30;;;;;;;28.97;25.20;;;10.70;99.90;;;;;;4953942;29;20205;-53
2021/10/30 07:46:56;;;;;;;28.60;24.17;;;11.00;99.90;;;;;;4952156;29;20488;-55
2021/10/30 07:49:22;;;;;;;28.93;25.97;;;11.50;99.90;;;;;;4953615;29;20190;-55
2021/10/30 07:51:47;;;;;;;30.60;25.40;;;12.00;99.90;;;;;;4953125;29;20200;-56
2021/10/30 07:54:13;;;;;;;27.50;24.60;;;12.20;98.60;;;;;;4950071;29;20521;-53
2021/10/30 07:56:39;;;;;;;27.50;24.63;;;12.40;97.70;;;;;;4952310;29;20221;-57
2021/10/30 07:59:04;;;;;;;28.37;25.47;;;12.70;97.30;;;;;;4953782;29;20200;-55
2021/10/30 08:01:30;;;;;;;28.83;25.70;;;12.80;95.90;;;;;;4952881;29;20181;-54
2021/10/30 08:03:55;;;;;;;31.20;26.60;;;13.00;95.20;;;;;;4952844;29;20181;-55
2021/10/30 08:06:21;;;;;;;27.47;24.53;;;13.10;95.00;;;;;;4952100;29;20213;-50
2021/10/30 08:08:46;;;;;;;28.70;25.70;;;13.20;94.10;;;;;;4953775;29;20182;-55
2021/10/30 08:11:12;;;;;;;29.00;26.00;;;13.30;93.90;;;;;;4952358;29;20208;-54
2021/10/30 08:13:37;;;;;;;29.77;26.67;;;13.40;93.50;;;;;;4953256;29;20182;-56
2021/10/30 08:16:03;;;;;;;28.77;25.57;;;13.20;93.30;;;;;;4952716;28;20221;-53
2021/10/30 08:18:29;;;;;;;28.30;25.33;;;13.20;93.50;;;;;;4953362;29;20193;-55
2021/10/30 08:20:55;;;;;;;29.97;26.70;;;13.10;93.50;;;;;;4953188;29;20511;-56
2021/10/30 08:23:20;;;;;;;28.60;25.53;;;13.20;93.50;;;;;;4953153;29;20608;-58
2021/10/30 08:25:46;;;;;;;28.97;25.90;;;13.20;93.10;;;;;;4952508;29;20209;-51
2021/10/30 08:28:11;;;;;;;30.47;27.00;;;13.30;93.20;;;;;;4953083;29;20177;-58
2021/10/30 08:30:37;;;;;;;27.87;25.17;;;13.40;92.70;;;;;;4952917;29;20668;-56
2021/10/30 08:33:03;;;;;;;28.50;25.53;;;13.50;92.20;;;;;;4951376;29;20276;-53
2021/10/30 08:35:28;;;;;;;30.37;27.27;;;13.50;92.50;;;;;;4948104;29;20229;-55
2021/10/30 08:37:54;;;;;;;27.20;24.30;;;13.60;91.80;;;;;;4952867;29;20185;-47
2021/10/30 08:40:20;;;;;;;26.80;24.10;;;13.70;91.80;;;;;;4950387;28;20881;-56
2021/10/30 08:42:50;;;;;;;29.43;26.47;;;13.80;91.40;;;;;;4935397;29;20194;-54
2021/10/30 08:45:16;;;;;;;29.00;26.00;;;13.90;90.90;;;;;;4952151;29;20208;-56
2021/10/30 08:47:48;;;;;;;29.70;25.80;;;14.00;90.80;;;;;;4952537;29;20452;-57
2021/10/30 08:50:16;;;;;;;28.60;25.70;;;14.10;90.70;;;;;;4950800;29;20680;-54
2021/10/30 08:52:42;;;;;;;29.87;26.87;;;14.30;90.10;;;;;;4952464;29;20932;-55
2021/10/30 08:55:08;;;;;;;30.87;27.57;;;14.20;89.50;;;;;;4952740;29;20486;-57
2021/10/30 08:57:38;;;;;;;29.10;25.97;;;14.00;89.50;;;;;;4951695;29;20437;-55
2021/10/30 09:00:29;;;;;;;32.63;27.40;;;13.80;90.20;;;;;;4952640;29;20433;-57
2021/10/30 09:02:58;;;;;;;28.57;24.57;;;14.20;90.00;;;;;;4949585;29;20437;-57
2021/10/30 09:05:24;;;;;;;30.37;27.17;;;14.80;86.80;;;;;;4952242;29;20473;-55
2021/10/30 09:07:53;;;;;;;29.23;26.07;;;14.90;85.30;;;;;;4951807;29;20436;-55
2021/10/30 09:10:46;;;;;;;29.90;26.90;;;14.80;85.10;;;;;;4952291;29;20880;-56
2021/10/30 09:13:12;;;;;;;31.10;27.90;;;14.60;86.00;;;;;;4934917;29;20430;-54
2021/10/30 09:15:42;;;;;;;30.13;27.10;;;14.70;84.80;;;;;;4951765;29;20417;-58
2021/10/30 09:18:32;;;;;;;29.53;26.53;;;14.90;84.80;;;;;;4952223;29;20469;-51
2021/10/30 09:21:04;;;;;;;30.30;27.30;;;14.70;84.60;;;;;;4949098;29;20463;-56
2021/10/30 09:23:37;;;;;;;29.47;26.37;;;14.80;83.90;;;;;;4951127;29;20460;-52
2021/10/30 09:26:24;;;;;;;32.13;28.63;;;15.00;83.50;;;;;;4951218;29;20480;-55
2021/10/30 09:28:53;;;;;;;30.50;27.30;;;15.00;82.80;;;;;;4947658;29;20440;-55
2021/10/30 09:31:21;;;;;;;30.40;27.30;;;15.30;82.50;;;;;;4949608;29;20433;-56
2021/10/30 09:33:52;;;;;;;32.43;28.27;;;15.10;81.30;;;;;;4944091;29;20469;-58
2021/10/30 09:36:18;;;;;;;31.10;27.90;;;14.90;82.00;;;;;;4950643;29;20448;-57
2021/10/30 09:38:53;;;;;;;29.73;26.67;;;14.70;82.20;;;;;;4950286;29;20913;-57
2021/10/30 09:41:36;;;;;;;31.23;28.03;;;14.90;82.30;;;;;;4951755;29;20431;-55
2021/10/30 09:44:17;;;;;;;32.00;28.70;;;14.80;82.00;;;;;;4950885;29;20437;-57
2021/10/30 09:46:45;;;;;;;31.10;27.80;;;15.00;81.90;;;;;;4950875;29;20990;-52
2021/10/30 09:49:20;;;;;;;32.07;27.40;;;14.90;81.20;;;;;;4950819;29;20770;-53
2021/10/30 09:52:05;;;;;;;31.10;27.80;;;14.80;81.30;;;;;;4951578;28;20456;-53
2021/10/30 09:54:43;;;;;;;31.37;27.77;;;15.10;80.80;;;;;;4950740;29;20425;-57
2021/10/30 09:57:13;;;;;;;30.40;27.40;;;15.30;80.40;;;;;;4951884;29;20433;-59
2021/10/30 09:59:39;;;;;;;31.57;28.03;;;15.70;78.80;;;;;;4951036;29;20513;-56
2021/10/30 10:02:07;;;;;;;30.63;27.53;;;15.90;76.50;;;;;;4951848;29;21276;-53
2021/10/30 10:04:43;;;;;;;30.50;27.43;;;16.10;76.00;;;;;;4950948;29;20627;-55
2021/10/30 10:07:10;;;;;;;35.43;29.17;;;15.80;75.40;;;;;;4950643;29;20814;-59
2021/10/30 10:09:36;;;;;;;30.13;27.23;;;15.60;75.40;;;;;;4950401;29;20440;-58
2021/10/30 10:12:03;;;;;;;30.10;27.17;;;15.60;75.80;;;;;;4951611;29;20409;-55
2021/10/30 10:14:30;;;;;;;30.07;26.97;;;16.10;75.00;;;;;;4933226;29;20445;-50
2021/10/30 10:16:56;;;;;;;29.93;27.03;;;16.30;73.60;;;;;;4950588;29;20901;-53
2021/10/30 10:19:23;;;;;;;31.07;27.90;;;16.50;72.50;;;;;;4950137;29;20515;-57
2021/10/30 10:21:51;;;;;;;33.03;29.80;;;16.70;72.10;;;;;;4951469;29;20418;-59
2021/10/30 10:24:20;;;;;;;30.97;27.87;;;17.10;70.50;;;;;;4949639;29;20580;-58
2021/10/30 10:26:45;;;;;;;30.53;27.33;;;16.80;68.90;;;;;;4950666;29;20409;-57
2021/10/30 10:29:12;;;;;;;30.73;27.63;;;17.20;68.60;;;;;;4950040;29;20446;-56
2021/10/30 10:31:58;;;;;;;31.17;28.10;;;17.50;67.50;;;;;;4951278;29;20181;-51
2021/10/30 10:34:29;;;;;;;30.20;27.07;;;17.60;65.50;;;;;;4950210;29;20476;-55
2021/10/30 10:37:17;;;;;;;30.57;27.47;;;18.10;65.30;;;;;;4947490;29;20785;-55
2021/10/30 10:39:46;;;;;;;31.00;28.00;;;18.70;61.40;;;;;;4948664;28;20447;-57
2021/10/30 10:42:16;;;;;;;30.10;27.20;;;18.80;60.20;;;;;;4950736;29;20428;-58
2021/10/30 10:44:42;;;;;;;31.77;28.57;;;18.80;58.60;;;;;;4949741;29;20465;-58
2021/10/30 10:47:41;;;;;;;31.43;28.33;;;18.70;58.50;;;;;;4951250;29;20440;-54
2021/10/30 10:50:09;;;;;;;32.37;29.17;;;18.30;59.00;;;;;;4950295;29;20206;-57
2021/10/30 10:52:35;;;;;;;31.93;28.70;;;18.40;58.20;;;;;;4933543;29;20435;-56
2021/10/30 10:55:05;;;;;;;32.07;29.10;;;17.80;57.70;;;;;;4949485;29;20917;-53
2021/10/30 10:57:32;;;;;;;32.80;29.70;;;17.30;59.80;;;;;;4951161;29;20195;-55
2021/10/30 10:59:59;;;;;;;31.33;28.33;;;17.80;59.60;;;;;;4944584;29;20522;-55
2021/10/30 11:02:34;;;;;;;29.77;27.03;;;17.80;58.60;;;;;;4951046;28;20470;-57
2021/10/30 11:05:09;;;;;;;29.60;26.70;;;18.20;58.40;;;;;;4952392;29;20479;-55
2021/10/30 11:07:40;;;;;;;29.37;26.67;;;18.50;57.90;;;;;;4954207;29;20779;-57
2021/10/30 11:10:09;;;;;;;30.50;27.40;;;18.20;57.80;;;;;;4952545;29;20451;-58
2021/10/30 11:12:35;;;;;;;29.70;26.70;;;18.60;56.30;;;;;;4954363;29;20437;-56
2021/10/30 11:15:11;;;;;;;29.73;26.83;;;18.80;56.40;;;;;;4953763;29;20445;-57
2021/10/30 11:18:11;;;;;;;29.33;26.53;;;18.50;56.20;;;;;;4954565;29;20439;-56
2021/10/30 11:20:43;;;;;;;29.60;26.70;;;18.40;56.50;;;;;;4953441;29;20484;-53
2021/10/30 11:23:28;;;;;;;28.67;25.97;;;18.10;55.90;;;;;;4921461;29;20476;-57
2021/10/30 11:26:07;;;;;;;31.17;28.17;;;18.30;56.10;;;;;;4943481;29;20556;-55
2021/10/30 11:28:34;;;;;;;30.83;27.70;;;18.10;56.60;;;;;;4945016;29;20769;-55
2021/10/30 11:31:10;;;;;;;30.30;27.30;;;17.80;56.60;;;;;;4950203;29;20508;-56
2021/10/30 11:33:35;;;;;;;32.43;29.27;;;17.90;56.60;;;;;;4954054;29;20480;-50
2021/10/30 11:36:08;;;;;;;31.10;27.80;;;18.30;55.60;;;;;;4952444;29;20433;-58
2021/10/30 11:38:39;;;;;;;29.50;26.53;;;18.10;55.80;;;;;;4935997;29;20267;-57
2021/10/30 11:41:10;;;;;;;29.70;27.00;;;18.70;55.80;;;;;;4948437;29;20502;-58
2021/10/30 11:43:37;;;;;;;30.43;27.47;;;19.00;54.40;;;;;;4953976;29;20421;-58
2021/10/30 11:46:06;;;;;;;29.33;26.57;;;19.80;53.60;;;;;;4931460;29;20484;-58
2021/10/30 11:48:41;;;;;;;29.50;26.70;;;20.30;52.80;;;;;;4949182;29;20432;-55
2021/10/30 11:51:21;;;;;;;30.20;27.40;;;20.70;51.30;;;;;;4938695;29;20549;-58
2021/10/30 11:53:48;;;;;;;29.13;26.60;;;20.40;50.10;;;;;;4949145;29;20421;-59
2021/10/30 11:56:18;;;;;;;29.57;26.87;;;20.20;50.70;;;;;;4951838;29;20494;-54
2021/10/30 11:59:01;;;;;;;29.07;26.37;;;20.20;50.20;;;;;;4947009;29;20439;-59
2021/10/30 12:01:27;;;;;;;29.10;26.40;;;20.10;48.90;;;;;;4953483;29;21070;-58
2021/10/30 12:03:57;;;;;;;29.60;26.90;;;19.80;50.20;;;;;;4952795;29;20421;-59
2021/10/30 12:06:24;;;;;;;28.90;26.20;;;20.50;49.50;;;;;;4953531;29;20661;-57
2021/10/30 12:08:50;;;;;;;27.90;25.30;;;20.60;48.60;;;;;;4952578;29;20421;-55
2021/10/30 12:11:17;;;;;;;27.50;25.00;;;20.80;48.40;;;;;;4953415;29;20449;-58
2021/10/30 12:13:45;;;;;;;27.93;25.33;;;20.60;47.30;;;;;;4953517;28;20577;-58
2021/10/30 12:16:11;;;;;;;27.53;25.00;;;20.40;47.60;;;;;;4952203;29;20505;-59
2021/10/30 12:18:37;;;;;;;27.60;24.73;;;20.40;47.60;;;;;;4953747;29;20430;-58
2021/10/30 12:21:02;;;;;;;30.77;27.87;;;20.40;46.70;;;;;;4952657;29;20453;-58
2021/10/30 12:23:28;;;;;;;29.27;26.47;;;20.20;47.30;;;;;;4953378;29;20500;-56
2021/10/30 12:26:04;;;;;;;26.97;24.57;;;19.80;46.90;;;;;;4952108;29;20229;-56
2021/10/30 12:28:34;;;;;;;29.17;26.37;;;18.80;48.70;;;;;;4953688;29;20189;-53
2021/10/30 12:31:00;;;;;;;28.93;26.03;;;18.80;48.90;;;;;;4942809;29;20473;-56
2021/10/30 12:33:33;;;;;;;27.97;25.30;;;18.60;49.70;;;;;;4934108;29;20502;-58
2021/10/30 12:35:59;;;;;;;28.00;25.33;;;19.20;50.10;;;;;;4940051;29;20445;-58